createdAt,value
2017-07-28T00:01:06.815Z,-84
2017-07-28T00:02:15.388Z,-84
2017-07-28T00:03:23.386Z,-82
2017-07-28T00:04:31.397Z,-82
2017-07-28T00:05:39.101Z,-82
2017-07-28T00:06:46.789Z,-82
2017-07-28T00:07:54.551Z,-82
2017-07-28T00:09:02.774Z,-82
2017-07-28T00:10:11.426Z,-82
2017-07-28T00:11:19.430Z,-82
2017-07-28T00:12:27.218Z,-82
2017-07-28T00:13:34.919Z,-82
2017-07-28T00:14:42.983Z,-82
2017-07-28T00:15:51.745Z,-82
2017-07-28T00:16:59.471Z,-82
2017-07-28T00:18:07.514Z,-82
2017-07-28T00:19:15.202Z,-82
2017-07-28T00:20:23.770Z,-82
2017-07-28T00:21:31.829Z,-82
2017-07-28T00:22:39.910Z,-84
2017-07-28T00:23:47.618Z,-84
2017-07-28T00:24:55.643Z,-84
2017-07-28T00:26:03.991Z,-84
2017-07-28T00:27:12.012Z,-84
2017-07-28T00:28:19.660Z,-84
2017-07-28T00:29:27.351Z,-82
2017-07-28T00:30:35.019Z,-82
2017-07-28T00:31:43.439Z,-82
2017-07-28T00:32:51.473Z,-82
2017-07-28T00:33:59.229Z,-82
2017-07-28T00:35:06.968Z,-82
2017-07-28T00:36:14.627Z,-82
2017-07-28T00:37:22.652Z,-82
2017-07-28T00:38:30.708Z,-82
2017-07-28T00:39:41.109Z,-82
2017-07-28T00:40:49.011Z,-82
2017-07-28T00:41:57.043Z,-82
2017-07-28T00:43:05.418Z,-82
2017-07-28T00:44:16.408Z,-82
2017-07-28T00:45:25.534Z,-82
2017-07-28T00:46:33.845Z,-82
2017-07-28T00:47:41.866Z,-82
2017-07-28T00:48:49.891Z,-82
2017-07-28T00:49:57.850Z,-82
2017-07-28T00:51:05.894Z,-82
2017-07-28T00:52:13.628Z,-82
2017-07-28T00:53:21.375Z,-82
2017-07-28T00:54:29.689Z,-82
2017-07-28T00:55:37.369Z,-82
2017-07-28T00:56:45.228Z,-82
2017-07-28T00:57:53.241Z,-82
2017-07-28T00:59:00.912Z,-82
2017-07-28T01:00:09.255Z,-82
2017-07-28T01:01:18.206Z,-82
2017-07-28T01:02:26.208Z,-82
2017-07-28T01:03:34.824Z,-82
2017-07-28T01:04:42.781Z,-82
2017-07-28T01:05:50.851Z,-82
2017-07-28T01:07:00.304Z,-82
2017-07-28T01:08:07.826Z,-82
2017-07-28T01:09:15.844Z,-82
2017-07-28T01:10:25.062Z,-82
2017-07-28T01:11:33.547Z,-82
2017-07-28T01:12:41.533Z,-82
2017-07-28T01:13:49.292Z,-82
2017-07-28T01:14:57.975Z,-82
2017-07-28T01:16:05.665Z,-82
2017-07-28T01:17:13.629Z,-82
2017-07-28T01:18:23.324Z,-82
2017-07-28T01:19:31.496Z,-82
2017-07-28T01:20:39.713Z,-82
2017-07-28T01:21:47.691Z,-82
2017-07-28T01:22:56.333Z,-82
2017-07-28T01:24:04.197Z,-82
2017-07-28T01:25:14.326Z,-82
2017-07-28T01:26:22.957Z,-82
2017-07-28T01:27:31.059Z,-82
2017-07-28T01:28:39.223Z,-82
2017-07-28T01:29:47.491Z,-82
2017-07-28T01:30:55.212Z,-82
2017-07-28T01:32:02.874Z,-82
2017-07-28T01:33:10.512Z,-82
2017-07-28T01:34:18.856Z,-82
2017-07-28T01:35:28.153Z,-82
2017-07-28T01:36:38.538Z,-82
2017-07-28T01:37:46.418Z,-82
2017-07-28T01:38:54.389Z,-82
2017-07-28T01:40:02.907Z,-82
2017-07-28T01:41:11.440Z,-82
2017-07-28T01:42:19.438Z,-82
2017-07-28T01:43:27.539Z,-82
2017-07-28T01:44:38.351Z,-82
2017-07-28T01:45:46.720Z,-82
2017-07-28T01:46:55.202Z,-82
2017-07-28T01:48:03.248Z,-82
2017-07-28T01:49:12.270Z,-82
2017-07-28T01:50:20.327Z,-82
2017-07-28T01:51:28.410Z,-82
2017-07-28T01:52:38.478Z,-82
2017-07-28T01:53:47.624Z,-82
2017-07-28T01:54:55.624Z,-82
2017-07-28T01:56:03.340Z,-82
2017-07-28T01:57:11.728Z,-82
2017-07-28T01:58:19.384Z,-82
2017-07-28T01:59:27.145Z,-82
2017-07-28T02:00:35.148Z,-82
2017-07-28T02:01:43.157Z,-82
2017-07-28T02:02:51.269Z,-82
2017-07-28T02:03:59.582Z,-82
2017-07-28T02:05:07.373Z,-82
2017-07-28T02:06:15.340Z,-82
2017-07-28T02:07:22.964Z,-82
2017-07-28T02:08:31.570Z,-82
2017-07-28T02:09:39.273Z,-82
2017-07-28T02:10:47.863Z,-82
2017-07-28T02:11:55.812Z,-82
2017-07-28T02:13:03.538Z,-82
2017-07-28T02:14:11.586Z,-82
2017-07-28T02:15:19.379Z,-82
2017-07-28T02:16:27.223Z,-82
2017-07-28T02:17:35.324Z,-82
2017-07-28T02:18:44.114Z,-82
2017-07-28T02:19:52.445Z,-82
2017-07-28T02:21:00.473Z,-82
2017-07-28T02:22:08.476Z,-82
2017-07-28T02:23:16.490Z,-82
2017-07-28T02:24:25.599Z,-82
2017-07-28T02:25:36.293Z,-82
2017-07-28T02:26:44.257Z,-82
2017-07-28T02:27:56.444Z,-82
2017-07-28T02:29:15.431Z,-82
2017-07-28T02:30:23.135Z,-82
2017-07-28T02:31:31.149Z,-82
2017-07-28T02:32:39.331Z,-82
2017-07-28T02:33:47.904Z,-82
2017-07-28T02:34:56.581Z,-82
2017-07-28T02:36:04.359Z,-82
2017-07-28T02:37:12.426Z,-84
2017-07-28T02:38:20.405Z,-82
2017-07-28T02:39:28.511Z,-80
2017-07-28T02:40:36.505Z,-80
2017-07-28T02:41:44.222Z,-80
2017-07-28T02:42:52.884Z,-80
2017-07-28T02:44:01.574Z,-80
2017-07-28T02:45:10.933Z,-80
2017-07-28T02:46:20.189Z,-80
2017-07-28T02:47:28.928Z,-80
2017-07-28T02:48:37.519Z,-80
2017-07-28T02:49:45.170Z,-80
2017-07-28T02:50:52.811Z,-80
2017-07-28T02:52:00.758Z,-80
2017-07-28T02:53:08.777Z,-80
2017-07-28T02:54:16.870Z,-80
2017-07-28T02:55:24.611Z,-80
2017-07-28T02:56:32.545Z,-80
2017-07-28T02:57:40.447Z,-80
2017-07-28T02:58:48.682Z,-80
2017-07-28T02:59:57.178Z,-80
2017-07-28T03:01:04.888Z,-80
2017-07-28T03:02:14.157Z,-80
2017-07-28T03:03:22.216Z,-80
2017-07-28T03:04:30.788Z,-80
2017-07-28T03:05:39.221Z,-80
2017-07-28T03:06:46.887Z,-80
2017-07-28T03:07:54.649Z,-80
2017-07-28T03:09:02.389Z,-80
2017-07-28T03:10:10.287Z,-80
2017-07-28T03:11:18.364Z,-80
2017-07-28T03:12:26.277Z,-80
2017-07-28T03:13:34.209Z,-80
2017-07-28T03:14:42.186Z,-80
2017-07-28T03:15:49.905Z,-80
2017-07-28T03:16:58.042Z,-80
2017-07-28T03:18:05.791Z,-80
2017-07-28T03:19:14.757Z,-80
2017-07-28T03:20:22.670Z,-80
2017-07-28T03:21:31.042Z,-80
2017-07-28T03:22:39.407Z,-80
2017-07-28T03:23:48.955Z,-80
2017-07-28T03:24:56.897Z,-80
2017-07-28T03:26:05.349Z,-80
2017-07-28T03:27:13.087Z,-80
2017-07-28T03:28:21.125Z,-80
2017-07-28T03:29:29.082Z,-80
2017-07-28T03:30:36.773Z,-80
2017-07-28T03:31:44.431Z,-80
2017-07-28T03:32:52.105Z,-80
2017-07-28T03:34:00.273Z,-80
2017-07-28T03:35:08.773Z,-80
2017-07-28T03:36:22.053Z,-80
2017-07-28T03:37:29.961Z,-80
2017-07-28T03:38:38.802Z,-80
2017-07-28T03:39:46.803Z,-80
2017-07-28T03:40:54.448Z,-80
2017-07-28T03:42:02.139Z,-80
2017-07-28T03:43:09.761Z,-80
2017-07-28T03:44:19.329Z,-80
2017-07-28T03:45:28.810Z,-80
2017-07-28T03:46:37.373Z,-80
2017-07-28T03:47:45.827Z,-80
2017-07-28T03:48:53.769Z,-80
2017-07-28T03:50:01.704Z,-80
2017-07-28T03:51:10.394Z,-80
2017-07-28T03:52:18.699Z,-78
2017-07-28T03:53:33.906Z,-80
2017-07-28T03:54:43.885Z,-78
2017-07-28T03:55:53.085Z,-80
2017-07-28T03:57:01.253Z,-80
2017-07-28T03:58:09.610Z,-80
2017-07-28T03:59:17.291Z,-80
2017-07-28T04:00:34.607Z,-80
2017-07-28T04:01:45.647Z,-80
2017-07-28T04:02:59.783Z,-80
2017-07-28T04:04:12.391Z,-80
2017-07-28T04:05:24.423Z,-80
2017-07-28T04:06:33.518Z,-80
2017-07-28T04:07:43.566Z,-80
2017-07-28T04:08:52.013Z,-80
2017-07-28T04:10:05.112Z,-80
2017-07-28T04:11:14.886Z,-80
2017-07-28T04:12:25.440Z,-80
2017-07-28T04:13:35.584Z,-80
2017-07-28T04:14:44.048Z,-80
2017-07-28T04:15:55.005Z,-80
2017-07-28T04:17:08.664Z,-80
2017-07-28T04:18:18.555Z,-80
2017-07-28T04:19:32.035Z,-80
2017-07-28T04:20:43.903Z,-80
2017-07-28T04:21:54.751Z,-80
2017-07-28T04:23:07.144Z,-82
2017-07-28T04:24:15.766Z,-82
2017-07-28T04:25:34.690Z,-80
2017-07-28T04:26:42.333Z,-80
2017-07-28T04:27:50.193Z,-80
2017-07-28T04:28:59.564Z,-80
2017-07-28T04:30:12.485Z,-80
2017-07-28T04:31:25.466Z,-80
2017-07-28T04:32:38.099Z,-80
2017-07-28T04:33:57.643Z,-80
2017-07-28T04:35:07.951Z,-80
2017-07-28T04:36:20.710Z,-80
2017-07-28T04:37:36.731Z,-80
2017-07-28T04:38:47.306Z,-80
2017-07-28T04:40:00.576Z,-80
2017-07-28T04:41:10.447Z,-80
2017-07-28T04:42:30.097Z,-80
2017-07-28T04:43:40.747Z,-80
2017-07-28T04:44:49.328Z,-80
2017-07-28T04:46:04.371Z,-80
2017-07-28T04:47:16.052Z,-80
2017-07-28T04:48:25.690Z,-80
2017-07-28T04:49:35.961Z,-80
2017-07-28T04:50:44.138Z,-80
2017-07-28T04:51:54.601Z,-80
2017-07-28T04:53:10.243Z,-80
2017-07-28T04:54:31.106Z,-80
2017-07-28T04:55:43.009Z,-80
2017-07-28T04:57:12.087Z,-80
2017-07-28T04:58:27.756Z,-80
2017-07-28T05:01:32.290Z,-80
2017-07-28T05:02:44.053Z,-78
2017-07-28T06:22:11.904Z,-72
2017-07-28T06:23:20.180Z,-72
2017-07-28T06:24:28.080Z,-72
2017-07-28T06:25:36.077Z,-72
2017-07-28T06:26:44.088Z,-72
2017-07-28T06:27:52.141Z,-72
2017-07-28T06:29:00.152Z,-72
2017-07-28T06:30:08.124Z,-72
2017-07-28T06:31:16.244Z,-72
2017-07-28T06:32:24.208Z,-72
2017-07-28T06:33:32.411Z,-72
2017-07-28T06:34:40.182Z,-72
2017-07-28T06:35:48.211Z,-72
2017-07-28T06:36:56.132Z,-72
2017-07-28T06:38:05.673Z,-74
2017-07-28T06:39:14.592Z,-72
2017-07-28T06:40:22.593Z,-72
2017-07-28T06:41:30.574Z,-72
2017-07-28T06:42:38.608Z,-72
2017-07-28T06:43:46.387Z,-72
2017-07-28T06:44:54.492Z,-72
2017-07-28T06:46:02.676Z,-72
2017-07-28T06:47:10.941Z,-72
2017-07-28T06:48:18.963Z,-72
2017-07-28T06:49:26.963Z,-72
2017-07-28T06:50:35.389Z,-72
2017-07-28T06:51:43.404Z,-72
2017-07-28T06:52:51.109Z,-72
2017-07-28T06:53:59.425Z,-72
2017-07-28T06:55:07.736Z,-72
2017-07-28T06:56:16.486Z,-72
2017-07-28T06:57:24.222Z,-72
2017-07-28T06:58:32.043Z,-72
2017-07-28T06:59:39.807Z,-72
2017-07-28T07:00:47.921Z,-72
2017-07-28T07:01:57.068Z,-72
2017-07-28T07:03:05.322Z,-72
2017-07-28T07:04:13.337Z,-72
2017-07-28T07:05:21.176Z,-72
2017-07-28T07:06:35.705Z,-72
2017-07-28T07:07:44.269Z,-72
2017-07-28T07:08:52.414Z,-72
2017-07-28T07:10:00.168Z,-72
2017-07-28T07:11:07.847Z,-72
2017-07-28T07:12:16.403Z,-72
2017-07-28T07:13:24.753Z,-72
2017-07-28T07:14:32.794Z,-72
2017-07-28T07:15:43.028Z,-72
2017-07-28T07:16:51.077Z,-72
2017-07-28T07:17:59.144Z,-72
2017-07-28T07:19:07.230Z,-72
2017-07-28T07:20:14.978Z,-72
2017-07-28T07:21:22.984Z,-72
2017-07-28T07:22:31.173Z,-72
2017-07-28T07:23:39.876Z,-72
2017-07-28T07:24:48.711Z,-72
2017-07-28T07:25:56.886Z,-74
2017-07-28T07:27:04.626Z,-78
2017-07-28T07:28:12.786Z,-76
2017-07-28T07:29:22.290Z,-78
2017-07-28T07:30:31.244Z,-78
2017-07-28T07:31:41.167Z,-78
2017-07-28T07:32:52.516Z,-78
2017-07-28T07:34:01.043Z,-78
2017-07-28T07:35:10.643Z,-78
2017-07-28T07:36:20.524Z,-80
2017-07-28T07:37:29.111Z,-80
2017-07-28T07:38:41.597Z,-80
2017-07-28T07:39:49.771Z,-80
2017-07-28T07:40:57.894Z,-80
2017-07-28T07:42:08.597Z,-82
2017-07-28T07:43:16.522Z,-80
2017-07-28T07:44:26.701Z,-80
2017-07-28T07:45:34.528Z,-78
2017-07-28T07:46:42.303Z,-78
2017-07-28T07:47:50.758Z,-78
2017-07-28T07:48:58.522Z,-78
2017-07-28T07:50:08.980Z,-80
2017-07-28T07:51:18.241Z,-80
2017-07-28T07:52:26.209Z,-80
2017-07-28T07:53:34.706Z,-80
2017-07-28T07:54:42.589Z,-80
2017-07-28T07:55:50.488Z,-80
2017-07-28T07:57:02.136Z,-80
2017-07-28T07:58:10.458Z,-80
2017-07-28T07:59:19.116Z,-80
2017-07-28T08:00:27.695Z,-80
2017-07-28T08:01:37.082Z,-78
2017-07-28T08:02:45.418Z,-80
2017-07-28T08:03:53.689Z,-80
2017-07-28T08:05:01.935Z,-80
2017-07-28T08:06:10.162Z,-80
2017-07-28T08:07:18.459Z,-80
2017-07-28T08:08:31.074Z,-80
2017-07-28T08:09:39.922Z,-80
2017-07-28T08:10:48.641Z,-82
2017-07-28T08:11:56.656Z,-80
2017-07-28T08:13:04.462Z,-78
2017-07-28T08:14:12.805Z,-80
2017-07-28T08:15:20.523Z,-80
2017-07-28T08:16:28.986Z,-80
2017-07-28T08:17:37.242Z,-80
2017-07-28T08:18:45.162Z,-80
2017-07-28T08:19:52.860Z,-78
2017-07-28T08:21:00.889Z,-78
2017-07-28T08:22:09.424Z,-78
2017-07-28T08:23:17.894Z,-78
2017-07-28T08:24:26.182Z,-78
2017-07-28T08:25:34.284Z,-78
2017-07-28T08:26:42.010Z,-78
2017-07-28T08:27:50.158Z,-78
2017-07-28T08:29:00.365Z,-78
2017-07-28T08:30:08.766Z,-78
2017-07-28T08:31:16.903Z,-78
2017-07-28T08:32:26.387Z,-78
2017-07-28T08:33:34.562Z,-78
2017-07-28T08:34:42.611Z,-78
2017-07-28T08:35:50.652Z,-78
2017-07-28T08:36:58.676Z,-78
2017-07-28T08:38:06.362Z,-78
2017-07-28T08:39:14.466Z,-78
2017-07-28T08:40:23.114Z,-78
2017-07-28T08:41:31.922Z,-78
2017-07-28T08:42:40.172Z,-78
2017-07-28T08:43:48.333Z,-78
2017-07-28T08:44:56.869Z,-78
2017-07-28T08:46:04.992Z,-78
2017-07-28T08:47:13.700Z,-78
2017-07-28T08:48:22.089Z,-78
2017-07-28T08:49:30.071Z,-78
2017-07-28T08:50:38.632Z,-78
2017-07-28T08:51:46.420Z,-78
2017-07-28T08:52:54.347Z,-78
2017-07-28T08:54:02.242Z,-78
2017-07-28T08:55:10.044Z,-78
2017-07-28T08:56:18.320Z,-78
2017-07-28T08:57:26.412Z,-78
2017-07-28T08:58:34.564Z,-78
2017-07-28T08:59:42.312Z,-78
2017-07-28T09:00:50.290Z,-78
2017-07-28T09:01:58.379Z,-78
2017-07-28T09:03:06.130Z,-78
2017-07-28T09:04:14.249Z,-78
2017-07-28T09:05:22.391Z,-78
2017-07-28T09:06:33.891Z,-78
2017-07-28T09:07:42.475Z,-78
2017-07-28T09:08:51.329Z,-78
2017-07-28T09:09:59.529Z,-78
2017-07-28T09:11:08.604Z,-78
2017-07-28T09:12:16.400Z,-78
2017-07-28T09:13:24.553Z,-78
2017-07-28T09:14:32.330Z,-78
2017-07-28T09:15:40.072Z,-78
2017-07-28T09:16:48.354Z,-78
2017-07-28T09:17:56.590Z,-78
2017-07-28T09:19:05.194Z,-78
2017-07-28T09:20:13.010Z,-78
2017-07-28T09:21:21.088Z,-78
2017-07-28T09:22:31.667Z,-78
2017-07-28T09:23:39.646Z,-78
2017-07-28T09:24:48.601Z,-78
2017-07-28T09:25:56.737Z,-78
2017-07-28T09:27:04.856Z,-78
2017-07-28T09:28:12.609Z,-78
2017-07-28T09:29:21.943Z,-78
2017-07-28T09:30:30.200Z,-78
2017-07-28T09:31:38.542Z,-80
2017-07-28T09:32:48.670Z,-80
2017-07-28T09:33:57.504Z,-80
2017-07-28T09:35:06.109Z,-80
2017-07-28T09:36:14.369Z,-80
2017-07-28T09:37:22.153Z,-80
2017-07-28T09:38:30.403Z,-80
2017-07-28T09:39:38.750Z,-80
2017-07-28T09:40:46.508Z,-80
2017-07-28T09:41:54.844Z,-80
2017-07-28T09:43:03.016Z,-80
2017-07-28T09:44:14.031Z,-80
2017-07-28T09:45:22.146Z,-80
2017-07-28T09:46:29.959Z,-80
2017-07-28T09:47:38.357Z,-80
2017-07-28T09:48:46.425Z,-80
2017-07-28T09:49:54.222Z,-80
2017-07-28T09:51:02.287Z,-80
2017-07-28T09:52:10.496Z,-80
2017-07-28T09:53:18.751Z,-80
2017-07-28T09:54:26.795Z,-80
2017-07-28T09:55:34.735Z,-80
2017-07-28T09:56:43.224Z,-80
2017-07-28T09:57:51.243Z,-80
2017-07-28T09:58:59.358Z,-82
2017-07-28T10:00:07.356Z,-80
2017-07-28T10:01:15.423Z,-80
2017-07-28T10:02:24.583Z,-80
2017-07-28T10:03:34.518Z,-80
2017-07-28T10:04:43.300Z,-80
2017-07-28T10:05:51.057Z,-80
2017-07-28T10:06:58.802Z,-80
2017-07-28T10:08:06.854Z,-80
2017-07-28T10:09:14.841Z,-80
2017-07-28T10:10:23.785Z,-80
2017-07-28T10:11:31.948Z,-80
2017-07-28T10:12:40.158Z,-80
2017-07-28T10:13:48.030Z,-80
2017-07-28T10:14:56.195Z,-80
2017-07-28T10:16:04.665Z,-80
2017-07-28T10:17:12.374Z,-80
2017-07-28T10:18:20.785Z,-80
2017-07-28T10:19:28.831Z,-80
2017-07-28T10:20:36.553Z,-80
2017-07-28T10:21:45.344Z,-80
2017-07-28T10:22:55.683Z,-80
2017-07-28T10:24:03.924Z,-78
2017-07-28T10:25:14.471Z,-78
2017-07-28T10:26:22.241Z,-78
2017-07-28T10:27:31.457Z,-82
2017-07-28T10:28:39.519Z,-82
2017-07-28T10:29:47.640Z,-80
2017-07-28T10:30:55.782Z,-80
2017-07-28T10:32:03.830Z,-80
2017-07-28T10:33:12.214Z,-80
2017-07-28T10:34:20.362Z,-80
2017-07-28T10:35:28.344Z,-80
2017-07-28T10:36:36.228Z,-80
2017-07-28T10:37:44.471Z,-80
2017-07-28T10:38:53.101Z,-80
2017-07-28T10:40:02.440Z,-80
2017-07-28T10:41:10.490Z,-80
2017-07-28T10:42:18.443Z,-80
2017-07-28T10:43:26.395Z,-80
2017-07-28T10:44:35.990Z,-80
2017-07-28T10:45:45.353Z,-80
2017-07-28T10:46:55.320Z,-80
2017-07-28T10:48:03.919Z,-80
2017-07-28T10:49:11.680Z,-80
2017-07-28T10:50:19.778Z,-80
2017-07-28T10:51:28.246Z,-82
2017-07-28T10:52:37.026Z,-80
2017-07-28T10:53:45.390Z,-80
2017-07-28T10:55:00.044Z,-80
2017-07-28T10:56:08.586Z,-80
2017-07-28T10:57:16.269Z,-80
2017-07-28T10:58:24.185Z,-80
2017-07-28T10:59:34.228Z,-80
2017-07-28T11:00:42.241Z,-80
2017-07-28T11:01:50.719Z,-80
2017-07-28T11:02:58.815Z,-80
2017-07-28T11:04:07.202Z,-80
2017-07-28T11:05:15.605Z,-80
2017-07-28T11:06:23.442Z,-80
2017-07-28T11:07:31.998Z,-80
2017-07-28T11:08:39.973Z,-80
2017-07-28T11:09:48.118Z,-80
2017-07-28T11:10:55.990Z,-80
2017-07-28T11:12:04.345Z,-80
2017-07-28T11:13:12.791Z,-80
2017-07-28T11:14:21.288Z,-80
2017-07-28T11:15:29.550Z,-80
2017-07-28T11:16:37.446Z,-80
2017-07-28T11:17:45.461Z,-80
2017-07-28T11:18:54.126Z,-80
2017-07-28T11:20:03.044Z,-80
2017-07-28T11:21:10.823Z,-80
2017-07-28T11:22:18.863Z,-80
2017-07-28T11:23:27.035Z,-80
2017-07-28T11:24:35.590Z,-80
2017-07-28T11:25:43.693Z,-80
2017-07-28T11:26:53.392Z,-80
2017-07-28T11:28:01.003Z,-80
2017-07-28T11:29:08.923Z,-80
2017-07-28T11:30:17.055Z,-80
2017-07-28T11:31:26.108Z,-80
2017-07-28T11:32:35.535Z,-80
2017-07-28T11:33:43.556Z,-80
2017-07-28T11:34:52.141Z,-80
2017-07-28T11:36:01.106Z,-80
2017-07-28T11:37:08.839Z,-80
2017-07-28T11:38:17.220Z,-80
2017-07-28T11:39:25.129Z,-80
2017-07-28T11:40:33.681Z,-82
2017-07-28T11:42:27.445Z,-80
2017-07-28T11:43:43.629Z,-80
2017-07-28T11:59:37.492Z,-64
2017-07-28T12:08:24.741Z,-64
2017-07-28T12:09:45.559Z,-64
2017-07-28T12:17:16.854Z,-66
2017-07-28T12:18:35.770Z,-66
2017-07-28T12:20:00.733Z,-68
2017-07-28T12:21:31.752Z,-68
2017-07-28T12:23:25.979Z,-68
2017-07-28T12:27:44.199Z,-82
2017-07-28T12:29:12.617Z,-86
2017-07-28T12:30:37.131Z,-84
2017-07-28T12:55:34.355Z,-82
2017-07-28T12:56:57.918Z,-80
2017-07-28T12:58:22.095Z,-78
2017-07-28T13:31:01.859Z,-84
2017-07-28T13:32:22.051Z,-84
2017-07-28T13:33:44.481Z,-82
2017-07-28T13:35:15.370Z,-82
2017-07-28T13:36:36.376Z,-80
2017-07-28T13:38:02.049Z,-80
2017-07-28T13:39:29.058Z,-84
2017-07-28T13:40:49.295Z,-84
2017-07-28T13:42:09.965Z,-84
2017-07-28T13:43:36.402Z,-84
2017-07-28T13:45:00.525Z,-84
2017-07-28T13:46:24.003Z,-82
2017-07-28T13:47:46.068Z,-86
2017-07-28T13:49:09.626Z,-84
2017-07-28T13:50:29.947Z,-84
2017-07-28T13:51:50.386Z,-84
2017-07-28T13:53:11.258Z,-80
2017-07-28T13:54:35.175Z,-80
2017-07-28T13:55:55.390Z,-78
2017-07-28T13:57:15.508Z,-76
2017-07-28T13:58:41.594Z,-76
2017-07-28T14:00:04.335Z,-78
2017-07-28T14:01:30.482Z,-78
2017-07-28T14:02:51.883Z,-78
2017-07-28T14:04:16.750Z,-76
2017-07-28T14:05:39.744Z,-78
2017-07-28T14:07:03.984Z,-76
2017-07-28T14:08:28.724Z,-76
2017-07-28T14:09:53.428Z,-76
2017-07-28T14:11:15.567Z,-76
2017-07-28T14:12:36.763Z,-76
2017-07-28T14:14:02.141Z,-76
2017-07-28T14:15:23.266Z,-76
2017-07-28T14:16:45.836Z,-76
2017-07-28T14:18:10.050Z,-76
2017-07-28T14:19:31.758Z,-76
2017-07-28T14:20:52.339Z,-74
2017-07-28T14:22:12.380Z,-74
2017-07-28T14:23:34.122Z,-76
2017-07-28T14:24:56.105Z,-76
2017-07-28T14:26:23.717Z,-76
2017-07-28T14:27:45.161Z,-76
2017-07-28T14:29:07.386Z,-76
2017-07-28T14:30:27.990Z,-78
2017-07-28T14:31:52.554Z,-76
2017-07-28T14:33:15.749Z,-76
2017-07-28T14:34:40.684Z,-84
2017-07-28T14:36:01.150Z,-84
2017-07-28T14:37:21.690Z,-84
2017-07-28T14:38:42.493Z,-84
2017-07-28T14:40:02.981Z,-84
2017-07-28T14:41:22.897Z,-84
2017-07-28T14:42:43.703Z,-84
2017-07-28T14:44:03.965Z,-80
2017-07-28T14:45:25.233Z,-78
2017-07-28T14:46:51.234Z,-78
2017-07-28T14:48:26.770Z,-78
2017-07-28T14:49:52.508Z,-78
2017-07-28T14:51:17.611Z,-80
2017-07-28T14:52:39.203Z,-82
2017-07-28T14:54:01.024Z,-78
2017-07-28T14:55:30.334Z,-70
